Maribel — LAGU6 — position and weather

sailwx.info

Track history (hours):
 
Tides and Currents Weather Stations Pressure Air Temp Water Temp Dewpoint Dewpoint Depression Visibility Wind Speed Wind Dir Waves Ship Positions

Maribel

Last reported at 2014-Jul-24 09:26 UTC. Time now 2014-Aug-01 10:00 UTC.
Position N 01°09' E 103°46'.
Warning: this ship's position is 8 days out of date.

Length 227 m; draft 8.8 m.

Type: Ship. MMSI: 257872000.

Date/timePositionNaut miles runAvg speedWind from/ knotsBaromVisibWave heightAir tempDewpointWater temp
2014-Jul-24 09:26N 01°09' E 103°46'5 5.6
2014-Jul-24 08:32N 01°14' E 103°48'0 0.0
2014-Jul-24 07:11N 01°14' E 103°48'0 0.0
2014-Jul-24 06:25N 01°14' E 103°48'0 0.0
2014-Jul-24 05:22N 01°14' E 103°48'0 0.0
2014-Jul-24 04:24N 01°14' E 103°48'0 0.0
2014-Jul-24 03:21N 01°14' E 103°48'0 0.1
2014-Jul-24 02:33N 01°13' E 103°48'0 0.1
2014-Jul-24 01:32N 01°13' E 103°48'0 0.1
2014-Jul-24 00:29N 01°13' E 103°48'0 0.3
2014-Jul-23 23:33N 01°13' E 103°48'0 0.0
2014-Jul-23 01:32N 01°13' E 103°48'0 0.0
2014-Jul-23 00:31N 01°13' E 103°48'0 0.0
2014-Jul-22 20:17N 01°13' E 103°48'1 0.9
2014-Jul-22 19:33N 01°14' E 103°48'6 6.1
2014-Jul-22 18:33N 01°14' E 103°41'0 0.0
2014-Jul-21 15:33N 01°14' E 103°41'4 4.5
2014-Jul-21 14:33N 01°16' E 103°46'3 1.1
2014-Jul-21 11:29N 01°14' E 103°48'0 0.0
2014-Jul-21 08:28N 01°14' E 103°48'0 0.0
2014-Jul-21 07:21N 01°14' E 103°48'0 0.0
2014-Jul-21 05:11N 01°14' E 103°48'0 0.0
2014-Jul-21 00:24N 01°14' E 103°49'0 0.0
2014-Jul-20 23:18N 01°14' E 103°49'0 0.0
2014-Jul-20 19:16N 01°14' E 103°49'1 0.1
2014-Jul-20 11:26N 01°13' E 103°49'2 0.1
2014-Jul-19 17:25N 01°12' E 103°48'2 0.2
2014-Jul-19 09:15N 01°13' E 103°48'0 0.0
2014-Jul-19 08:06N 01°13' E 103°48'0 0.0
2014-Jul-19 07:33N 01°14' E 103°48'0 0.1
2014-Jul-19 06:23N 01°14' E 103°48'0 0.1
2014-Jul-19 03:16N 01°13' E 103°48'0 0.0
2014-Jul-19 01:21N 01°13' E 103°48'0 0.0
2014-Jul-19 00:20N 01°13' E 103°48'0 0.0
2014-Jul-18 23:05N 01°13' E 103°48'0 0.1
2014-Jul-18 20:10N 01°14' E 103°48'0 0.1
2014-Jul-18 19:33N 01°13' E 103°48'0 0.0
2014-Jul-18 18:21N 01°13' E 103°48'0 0.0
2014-Jul-18 17:29N 01°13' E 103°48'0 0.0
2014-Jul-18 16:05N 01°14' E 103°48'0 0.1
2014-Jul-18 14:16N 01°13' E 103°48'0 0.0
2014-Jul-18 12:30N 01°13' E 103°48'4 3.9
2014-Jul-18 11:33N 01°16' E 103°45'1 1.2
2014-Jul-18 10:31N 01°17' E 103°44'5 0.2
2014-Jul-17 07:07N 01°14' E 103°48'0 0.1
2014-Jul-17 06:30N 01°14' E 103°48'0 0.0
2014-Jul-17 05:12N 01°14' E 103°48'0 0.0
2014-Jul-16 22:09N 01°14' E 103°48'0 0.0
2014-Jul-16 21:32N 01°14' E 103°48'0 0.1
2014-Jul-16 20:32N 01°14' E 103°48'0 0.1
2014-Jul-16 19:13N 01°14' E 103°48'0 0.1
2014-Jul-16 18:31N 01°14' E 103°48'0 0.0
2014-Jul-16 17:25N 01°14' E 103°48'0 0.1
2014-Jul-16 16:33N 01°14' E 103°47'0 0.0
2014-Jul-16 15:30N 01°14' E 103°47'0 0.0
2014-Jul-16 14:32N 01°14' E 103°47'0 0.0
2014-Jul-16 13:29N 01°14' E 103°47'0 0.1
2014-Jul-16 12:29N 01°14' E 103°48'0 0.1
2014-Jul-16 11:04N 01°14' E 103°47'0 0.1
2014-Jul-16 10:31N 01°14' E 103°47'1 0.8
2014-Jul-16 09:33N 01°14' E 103°47'  
Track history (hours):
 
Tides and Currents Weather Stations Pressure Air Temp Water Temp Dewpoint Dewpoint Depression Visibility Wind Speed Wind Dir Waves Ship Positions

Maribel

Last reported at 2014-Jul-24 09:26 UTC. Time now 2014-Aug-01 10:00 UTC.
Position N 01°09' E 103°46'.
Warning: this ship's position is 8 days out of date.

Length 227 m; draft 8.8 m.

Type: Ship. MMSI: 257872000.

Date/timePositionNaut miles runAvg speedWind from/ knotsBaromVisibWave heightAir tempDewpointWater temp
2014-Jul-24 09:26N 01°09' E 103°46'5 5.6
2014-Jul-24 08:32N 01°14' E 103°48'0 0.0
2014-Jul-24 07:11N 01°14' E 103°48'0 0.0
2014-Jul-24 06:25N 01°14' E 103°48'0 0.0
2014-Jul-24 05:22N 01°14' E 103°48'0 0.0
2014-Jul-24 04:24N 01°14' E 103°48'0 0.0
2014-Jul-24 03:21N 01°14' E 103°48'0 0.1
2014-Jul-24 02:33N 01°13' E 103°48'0 0.1
2014-Jul-24 01:32N 01°13' E 103°48'0 0.1
2014-Jul-24 00:29N 01°13' E 103°48'0 0.3
2014-Jul-23 23:33N 01°13' E 103°48'0 0.0
2014-Jul-23 01:32N 01°13' E 103°48'0 0.0
2014-Jul-23 00:31N 01°13' E 103°48'0 0.0
2014-Jul-22 20:17N 01°13' E 103°48'1 0.9
2014-Jul-22 19:33N 01°14' E 103°48'6 6.1
2014-Jul-22 18:33N 01°14' E 103°41'0 0.0
2014-Jul-21 15:33N 01°14' E 103°41'4 4.5
2014-Jul-21 14:33N 01°16' E 103°46'3 1.1
2014-Jul-21 11:29N 01°14' E 103°48'0 0.0
2014-Jul-21 08:28N 01°14' E 103°48'0 0.0
2014-Jul-21 07:21N 01°14' E 103°48'0 0.0
2014-Jul-21 05:11N 01°14' E 103°48'0 0.0
2014-Jul-21 00:24N 01°14' E 103°49'0 0.0
2014-Jul-20 23:18N 01°14' E 103°49'0 0.0
2014-Jul-20 19:16N 01°14' E 103°49'1 0.1
2014-Jul-20 11:26N 01°13' E 103°49'2 0.1
2014-Jul-19 17:25N 01°12' E 103°48'2 0.2
2014-Jul-19 09:15N 01°13' E 103°48'0 0.0
2014-Jul-19 08:06N 01°13' E 103°48'0 0.0
2014-Jul-19 07:33N 01°14' E 103°48'0 0.1
2014-Jul-19 06:23N 01°14' E 103°48'0 0.1
2014-Jul-19 03:16N 01°13' E 103°48'0 0.0
2014-Jul-19 01:21N 01°13' E 103°48'0 0.0
2014-Jul-19 00:20N 01°13' E 103°48'0 0.0
2014-Jul-18 23:05N 01°13' E 103°48'0 0.1
2014-Jul-18 20:10N 01°14' E 103°48'0 0.1
2014-Jul-18 19:33N 01°13' E 103°48'0 0.0
2014-Jul-18 18:21N 01°13' E 103°48'0 0.0
2014-Jul-18 17:29N 01°13' E 103°48'0 0.0
2014-Jul-18 16:05N 01°14' E 103°48'0 0.1
2014-Jul-18 14:16N 01°13' E 103°48'0 0.0
2014-Jul-18 12:30N 01°13' E 103°48'4 3.9
2014-Jul-18 11:33N 01°16' E 103°45'1 1.2
2014-Jul-18 10:31N 01°17' E 103°44'5 0.2
2014-Jul-17 07:07N 01°14' E 103°48'0 0.1
2014-Jul-17 06:30N 01°14' E 103°48'0 0.0
2014-Jul-17 05:12N 01°14' E 103°48'0 0.0
2014-Jul-16 22:09N 01°14' E 103°48'0 0.0
2014-Jul-16 21:32N 01°14' E 103°48'0 0.1
2014-Jul-16 20:32N 01°14' E 103°48'0 0.1
2014-Jul-16 19:13N 01°14' E 103°48'0 0.1
2014-Jul-16 18:31N 01°14' E 103°48'0 0.0
2014-Jul-16 17:25N 01°14' E 103°48'0 0.1
2014-Jul-16 16:33N 01°14' E 103°47'0 0.0
2014-Jul-16 15:30N 01°14' E 103°47'0 0.0
2014-Jul-16 14:32N 01°14' E 103°47'0 0.0
2014-Jul-16 13:29N 01°14' E 103°47'0 0.1
2014-Jul-16 12:29N 01°14' E 103°48'0 0.1
2014-Jul-16 11:04N 01°14' E 103°47'0 0.1
2014-Jul-16 10:31N 01°14' E 103°47'1 0.8
2014-Jul-16 09:33N 01°14' E 103°47'  

Dump ship's entire track history